Mount Morris, MI (48458)

3:10 AM EDT on October 31, 2014 (GMT -0400)
Genesee/Gregor St. | Change Station
CLOSE
Current Station
Personal Weather Station
Location: Mount Morris, MI
Elevation: 755 ft
Nearby Weather Stations

Elev 755 ft 43.11 °N, 83.63 °W | Updated 15 seconds ago

Overcast
Overcast
43.3 °F
Feels Like 43 °F
N
0.0
Wind Variable Wind from NNW
Gusts 0.0 mph

Today
High -- | Low -- °F
--% Chance of Precip.
Yesterday
High -- | Low -- °F
Precip. -- in
8:08 AM 6:27 PM
First Quarter, 52% visible
Pressure 29.96 in
Visibility 10.0 miles
Clouds Few 3800 ft
Overcast 9500 ft
Windchill 43 °F
Dew Point 40 °F
Humidity 89%
Rainfall 0.00 in
Snow Depth Not available.
UV 0 out of 12
Pollen .30 out of 12
Air Quality Not available.
Flu Activity Not available.
METAR KFNT 310653Z AUTO 21005KT 10SM FEW038 OVC095 08/03 A2995 RMK AO2 SLP145 T00780028

More Conditions Fewer Conditions

Pressure 29.96 in
Visibility 10.0 miles
Clouds Few 3800 ft
Overcast 9500 ft
Windchill 43 °F
Dew Point 40 °F
Humidity 89%
Rainfall 0.00 in
Snow Depth Not available.
UV 0 out of 12
Pollen .30 out of 12
Air Quality Not available.
Flu Activity Not available.
METAR KFNT 310653Z AUTO 21005KT 10SM FEW038 OVC095 08/03 A2995 RMK AO2 SLP145 T00780028

More Conditions Fewer Conditions

10-Day Weather Forecast

Almanac

Astronomy

Oct. 31, 2014 Rise Set
Actual Time
Civil Twilight
Nautical Twilight
Astronomical Twilight
Moon
Length of Visible Light
Length of Day
Tomorrow will be .
, % of the Moon is Illuminated

Today's Extremes

State Highs State Lows

Community

WunderPhotos

Upload Photos

1,766,571 photos uploaded!

WunderBlogs® & News

Nearby

Air Quality

  Air Quality AQ Index Pollutant
Not available.

Snow Depth

Station Depth Elevation

Earthquake Activity

City Distance Mag. Time & Date
Minimum magnitude displayed is 2.5.

Coastal Water Temperatures

Place Temperature

Nearby Weather Stations